createdAt,value
2018-09-10T00:02:00.010Z,23.40
2018-09-10T00:04:28.234Z,23.40
2018-09-10T00:06:57.766Z,23.40
2018-09-10T00:09:25.995Z,23.40
2018-09-10T00:11:54.308Z,23.40
2018-09-10T00:14:22.577Z,23.40
2018-09-10T00:16:50.886Z,23.40
2018-09-10T00:19:19.225Z,23.40
2018-09-10T00:21:48.017Z,23.30
2018-09-10T00:24:16.325Z,23.30
2018-09-10T00:26:44.555Z,23.30
2018-09-10T00:29:13.162Z,23.30
2018-09-10T00:31:41.434Z,23.30
2018-09-10T00:34:09.667Z,23.30
2018-09-10T00:36:38.018Z,23.30
2018-09-10T00:39:09.890Z,23.30
2018-09-10T00:41:38.595Z,23.30
2018-09-10T00:44:06.842Z,23.30
2018-09-10T00:46:35.131Z,23.30
2018-09-10T00:49:03.462Z,23.30
2018-09-10T00:51:32.054Z,23.30
2018-09-10T00:54:00.281Z,23.30
2018-09-10T00:56:28.609Z,23.30
2018-09-10T00:58:57.607Z,23.20
2018-09-10T01:01:25.845Z,23.20
2018-09-10T01:03:54.065Z,23.30
2018-09-10T01:06:22.402Z,23.20
2018-09-10T01:08:51.522Z,23.20
2018-09-10T01:11:19.742Z,23.20
2018-09-10T01:13:48.589Z,23.20
2018-09-10T01:16:16.809Z,23.20
2018-09-10T01:18:45.043Z,23.20
2018-09-10T01:21:13.398Z,23.20
2018-09-10T01:23:41.703Z,23.20
2018-09-10T01:26:09.939Z,23.20
2018-09-10T01:28:38.557Z,23.20
2018-09-10T01:31:06.895Z,23.20
2018-09-10T01:33:40.554Z,23.20
2018-09-10T01:36:08.847Z,23.20
2018-09-10T01:38:37.078Z,23.20
2018-09-10T01:41:06.398Z,23.20
2018-09-10T01:43:34.905Z,23.20
2018-09-10T01:46:03.511Z,23.20
2018-09-10T01:48:32.246Z,23.20
2018-09-10T01:51:00.543Z,23.20
2018-09-10T01:53:28.851Z,23.20
2018-09-10T01:55:57.590Z,23.10
2018-09-10T01:58:25.891Z,23.10
2018-09-10T02:00:54.177Z,23.10
2018-09-10T02:03:29.173Z,23.20
2018-09-10T02:05:57.623Z,23.10
2018-09-10T02:08:25.832Z,23.20
2018-09-10T02:10:54.353Z,23.10
2018-09-10T02:13:22.565Z,23.20
2018-09-10T02:15:51.737Z,23.10
2018-09-10T02:18:21.499Z,23.10
2018-09-10T02:20:49.710Z,23.10
2018-09-10T02:23:18.498Z,23.10
2018-09-10T02:25:47.159Z,23.20
2018-09-10T02:28:15.373Z,23.10
2018-09-10T02:30:43.578Z,23.10
2018-09-10T02:33:11.923Z,23.10
2018-09-10T02:35:40.153Z,23.10
2018-09-10T02:38:08.434Z,23.10
2018-09-10T02:40:37.324Z,23.10
2018-09-10T02:43:05.914Z,23.10
2018-09-10T02:45:34.133Z,23.10
2018-09-10T02:48:03.230Z,23.10
2018-09-10T02:50:31.449Z,23.10
2018-09-10T02:52:59.657Z,23.10
2018-09-10T02:55:28.158Z,23.10
2018-09-10T02:57:56.462Z,23.10
2018-09-10T03:00:25.213Z,23.10
2018-09-10T03:02:54.071Z,23.10
2018-09-10T03:05:22.282Z,23.10
2018-09-10T03:07:50.533Z,23.10
2018-09-10T03:10:21.086Z,23.10
2018-09-10T03:12:50.603Z,23.10
2018-09-10T03:15:18.849Z,23.10
2018-09-10T03:17:47.336Z,23.10
2018-09-10T03:20:15.550Z,23.10
2018-09-10T03:22:43.765Z,23.00
2018-09-10T03:25:12.122Z,23.00
2018-09-10T03:27:40.353Z,23.00
2018-09-10T03:30:08.581Z,23.10
2018-09-10T03:32:37.193Z,23.00
2018-09-10T03:35:05.422Z,23.00
2018-09-10T03:37:33.641Z,23.00
2018-09-10T03:40:02.121Z,23.00
2018-09-10T03:42:30.359Z,23.00
2018-09-10T03:44:58.654Z,23.00
2018-09-10T03:47:27.071Z,23.00
2018-09-10T03:49:55.190Z,23.00
2018-09-10T03:52:23.494Z,23.00
2018-09-10T03:54:52.081Z,23.00
2018-09-10T03:57:20.311Z,23.00
2018-09-10T03:59:48.562Z,23.00
2018-09-10T04:02:17.193Z,23.00
2018-09-10T04:04:45.413Z,23.00
2018-09-10T04:07:13.710Z,23.00
2018-09-10T04:09:42.669Z,23.00
2018-09-10T04:12:10.898Z,23.00
2018-09-10T04:14:44.139Z,23.00
2018-09-10T04:17:15.436Z,23.00
2018-09-10T04:19:43.657Z,23.00
2018-09-10T04:22:11.977Z,23.00
2018-09-10T04:24:40.724Z,23.00
2018-09-10T04:27:08.937Z,23.00
2018-09-10T04:29:37.166Z,23.00
2018-09-10T04:32:08.426Z,23.00
2018-09-10T04:34:36.689Z,23.00
2018-09-10T04:37:04.982Z,23.00
2018-09-10T04:39:33.874Z,23.00
2018-09-10T04:42:02.160Z,23.00
2018-09-10T04:44:30.366Z,23.00
2018-09-10T04:46:59.205Z,23.00
2018-09-10T04:49:27.443Z,22.90
2018-09-10T04:51:55.727Z,23.00
2018-09-10T04:54:24.325Z,22.90
2018-09-10T04:56:52.542Z,22.90
2018-09-10T04:59:20.786Z,22.90
2018-09-10T05:01:49.795Z,22.90
2018-09-10T05:04:18.948Z,23.00
2018-09-10T05:06:47.154Z,22.90
2018-09-10T05:09:15.510Z,23.00
2018-09-10T05:11:43.802Z,22.90
2018-09-10T05:14:12.398Z,22.90
2018-09-10T05:16:40.794Z,22.90
2018-09-10T05:19:09.004Z,22.90
2018-09-10T05:21:37.212Z,23.00
2018-09-10T05:24:05.826Z,22.90
2018-09-10T05:26:34.052Z,22.90
2018-09-10T05:29:02.281Z,22.90
2018-09-10T05:31:31.164Z,22.90
2018-09-10T05:33:59.406Z,22.90
2018-09-10T05:36:27.626Z,22.90
2018-09-10T05:38:56.499Z,22.90
2018-09-10T05:41:24.718Z,22.90
2018-09-10T05:43:53.095Z,22.90
2018-09-10T05:46:21.950Z,22.90
2018-09-10T05:48:50.163Z,22.90
2018-09-10T05:51:18.391Z,22.90
2018-09-10T05:53:47.295Z,22.90
2018-09-10T05:56:15.515Z,22.90
2018-09-10T05:58:43.817Z,22.90
2018-09-10T06:01:12.500Z,22.90
2018-09-10T06:03:40.719Z,22.90
2018-09-10T06:06:09.154Z,22.90
2018-09-10T06:08:38.324Z,22.90
2018-09-10T06:11:06.461Z,22.90
2018-09-10T06:13:34.698Z,22.90
2018-09-10T06:16:07.819Z,22.90
2018-09-10T06:18:36.037Z,22.90
2018-09-10T06:21:04.259Z,22.90
2018-09-10T06:23:32.815Z,22.90
2018-09-10T06:26:01.046Z,22.90
2018-09-10T06:28:29.342Z,22.90
2018-09-10T06:30:58.102Z,22.90
2018-09-10T06:33:26.318Z,22.90
2018-09-10T06:35:54.567Z,22.90
2018-09-10T06:38:22.867Z,22.90
2018-09-10T06:40:51.102Z,22.90
2018-09-10T06:43:19.307Z,22.90
2018-09-10T06:45:47.863Z,22.90
2018-09-10T06:48:16.203Z,22.90
2018-09-10T06:50:44.427Z,22.90
2018-09-10T06:53:12.935Z,22.90
2018-09-10T06:55:41.170Z,22.90
2018-09-10T06:58:09.423Z,22.90
2018-09-10T07:00:38.045Z,22.90
2018-09-10T07:03:06.550Z,22.90
2018-09-10T07:05:34.783Z,22.90
2018-09-10T07:08:03.491Z,22.90
2018-09-10T07:10:31.715Z,22.90
2018-09-10T07:12:59.978Z,22.90
2018-09-10T07:15:30.126Z,22.90
2018-09-10T07:17:58.422Z,22.90
2018-09-10T07:20:26.638Z,22.90
2018-09-10T07:22:55.295Z,22.90
2018-09-10T07:25:23.538Z,22.90
2018-09-10T07:27:51.757Z,22.90
2018-09-10T07:30:21.261Z,22.90
2018-09-10T07:32:49.479Z,22.90
2018-09-10T07:35:17.757Z,22.90
2018-09-10T07:37:46.125Z,22.90
2018-09-10T07:40:14.458Z,23.00
2018-09-10T07:42:42.665Z,23.00
2018-09-10T07:45:11.325Z,23.00
2018-09-10T07:47:39.534Z,23.00
2018-09-10T07:50:07.778Z,22.90
2018-09-10T07:52:37.305Z,23.00
2018-09-10T07:55:05.716Z,23.00
2018-09-10T07:57:33.945Z,23.00
2018-09-10T08:00:03.011Z,23.00
2018-09-10T08:02:31.322Z,23.00
2018-09-10T08:05:01.475Z,23.00
2018-09-10T08:07:30.272Z,23.00
2018-09-10T08:09:58.495Z,23.00
2018-09-10T08:12:26.718Z,23.00
2018-09-10T08:14:55.469Z,23.00
2018-09-10T08:17:23.883Z,23.00
2018-09-10T08:19:52.222Z,23.00
2018-09-10T08:22:20.902Z,22.90
2018-09-10T08:24:49.123Z,23.00
2018-09-10T08:27:17.338Z,23.00
2018-09-10T08:29:46.094Z,23.00
2018-09-10T08:32:14.338Z,22.90
2018-09-10T08:34:42.634Z,23.00
2018-09-10T08:37:11.077Z,23.00
2018-09-10T08:39:39.331Z,23.00
2018-09-10T08:42:07.817Z,23.00
2018-09-10T08:44:36.622Z,23.00
2018-09-10T08:47:04.874Z,23.00
2018-09-10T08:49:33.114Z,23.00
2018-09-10T08:52:01.445Z,23.00
2018-09-10T08:54:29.916Z,23.00
2018-09-10T08:56:58.073Z,23.00
2018-09-10T08:59:27.058Z,23.00
2018-09-10T09:01:55.370Z,23.00
2018-09-10T09:04:23.534Z,23.00
2018-09-10T09:06:52.124Z,23.00
2018-09-10T09:09:20.419Z,23.00
2018-09-10T09:11:48.722Z,23.00
2018-09-10T09:14:17.281Z,23.00
2018-09-10T09:16:45.486Z,23.00
2018-09-10T09:19:14.789Z,23.00
2018-09-10T09:21:44.268Z,23.00
2018-09-10T09:24:12.507Z,23.00
2018-09-10T09:26:41.426Z,23.00
2018-09-10T09:29:09.642Z,23.00
2018-09-10T09:31:37.864Z,23.00
2018-09-10T09:34:06.579Z,23.00
2018-09-10T09:36:40.292Z,23.00
2018-09-10T09:39:14.994Z,23.00
2018-09-10T09:41:48.687Z,23.00
2018-09-10T09:44:23.650Z,23.00
2018-09-10T09:46:51.890Z,23.00
2018-09-10T09:49:20.188Z,23.00
2018-09-10T09:51:48.516Z,23.00
2018-09-10T09:54:16.727Z,23.00
2018-09-10T09:56:44.949Z,23.00
2018-09-10T09:59:14.313Z,23.00
2018-09-10T10:03:55.352Z,23.00
2018-09-10T10:06:24.807Z,23.00
2018-09-10T10:08:53.223Z,23.00
2018-09-10T10:11:21.482Z,23.00
2018-09-10T10:13:50.453Z,23.00
2018-09-10T10:16:18.823Z,23.00
2018-09-10T10:18:48.050Z,23.10
2018-09-10T10:21:16.370Z,23.00
2018-09-10T10:23:44.595Z,23.00
2018-09-10T10:26:13.485Z,23.00
2018-09-10T10:28:41.711Z,23.10
2018-09-10T10:31:09.927Z,23.00
2018-09-10T10:33:38.550Z,23.10
2018-09-10T10:36:06.847Z,23.10
2018-09-10T10:38:35.075Z,23.10
2018-09-10T10:41:04.377Z,23.10
2018-09-10T10:43:32.718Z,23.10
2018-09-10T10:46:01.018Z,23.10
2018-09-10T10:48:29.502Z,23.10
2018-09-10T10:50:57.721Z,23.10
2018-09-10T10:53:25.954Z,23.10
2018-09-10T10:55:54.634Z,23.10
2018-09-10T10:58:22.851Z,23.10
2018-09-10T11:00:51.165Z,23.10
2018-09-10T11:03:23.171Z,23.10
2018-09-10T11:05:51.451Z,23.10
2018-09-10T11:08:19.744Z,23.20
2018-09-10T11:10:48.614Z,23.20
2018-09-10T11:13:16.842Z,23.10
2018-09-10T11:15:45.137Z,23.20
2018-09-10T11:18:13.857Z,23.20
2018-09-10T11:20:43.237Z,23.10
2018-09-10T11:23:11.468Z,23.20
2018-09-10T11:25:40.444Z,23.20
2018-09-10T11:28:08.742Z,23.20
2018-09-10T11:30:36.970Z,23.20
2018-09-10T11:33:05.252Z,23.30
2018-09-10T11:35:33.559Z,23.30
2018-09-10T11:38:01.891Z,23.30
2018-09-10T11:40:30.267Z,23.30
2018-09-10T11:42:58.497Z,23.30
2018-09-10T11:45:26.873Z,23.40
2018-09-10T11:47:56.148Z,23.40
2018-09-10T11:50:24.382Z,23.40
2018-09-10T11:52:52.675Z,23.40
2018-09-10T11:55:21.487Z,23.40
2018-09-10T11:57:49.751Z,23.40
2018-09-10T12:00:17.995Z,23.40
2018-09-10T12:02:46.830Z,23.50
2018-09-10T12:05:15.059Z,23.50
2018-09-10T12:07:43.313Z,23.40
2018-09-10T12:10:13.092Z,23.50
2018-09-10T12:12:41.405Z,23.50
2018-09-10T12:15:09.647Z,23.50
2018-09-10T12:17:38.121Z,23.50
2018-09-10T12:20:08.070Z,23.50
2018-09-10T12:22:36.297Z,23.50
2018-09-10T12:25:04.663Z,23.50
2018-09-10T12:27:32.938Z,23.50
2018-09-10T12:30:02.115Z,23.50
2018-09-10T12:32:30.545Z,23.50
2018-09-10T12:34:58.691Z,23.50
2018-09-10T12:37:27.198Z,23.50
2018-09-10T12:39:55.449Z,23.50
2018-09-10T12:42:23.770Z,23.50
2018-09-10T12:44:52.657Z,23.50
2018-09-10T12:47:20.911Z,23.50
2018-09-10T12:49:49.142Z,23.50
2018-09-10T12:52:18.610Z,23.50
2018-09-10T12:54:46.926Z,23.50
2018-09-10T12:57:15.255Z,23.50
2018-09-10T12:59:43.642Z,23.50
2018-09-10T13:02:11.898Z,23.50
2018-09-10T13:04:40.206Z,23.50
2018-09-10T13:07:08.995Z,23.50
2018-09-10T13:09:37.311Z,23.50
2018-09-10T13:12:05.791Z,23.50
2018-09-10T13:14:34.470Z,23.50
2018-09-10T13:17:02.854Z,23.50
2018-09-10T13:19:31.190Z,23.50
2018-09-10T13:22:00.510Z,23.50
2018-09-10T13:24:28.738Z,23.50
2018-09-10T13:26:57.169Z,23.50
2018-09-10T13:29:25.839Z,23.50
2018-09-10T13:31:54.157Z,23.60
2018-09-10T13:34:22.383Z,23.60
2018-09-10T13:36:51.377Z,23.60
2018-09-10T13:39:19.686Z,23.60
2018-09-10T13:41:48.002Z,23.60
2018-09-10T13:44:16.530Z,23.60
2018-09-10T13:46:44.849Z,23.50
2018-09-10T13:49:13.082Z,23.50
2018-09-10T13:51:41.667Z,23.60
2018-09-10T13:54:09.958Z,23.50
2018-09-10T13:56:38.103Z,23.60
2018-09-10T13:59:07.720Z,23.50
2018-09-10T14:01:35.963Z,23.60
2018-09-10T14:04:07.166Z,23.50
2018-09-10T14:06:35.820Z,23.50
2018-09-10T14:09:05.398Z,23.60
2018-09-10T14:11:34.293Z,23.50
2018-09-10T14:14:02.569Z,23.50
2018-09-10T14:16:30.793Z,23.50
2018-09-10T14:18:59.462Z,23.50
2018-09-10T14:21:27.709Z,23.60
2018-09-10T14:23:56.259Z,23.60
2018-09-10T14:26:25.011Z,23.60
2018-09-10T14:28:53.336Z,23.60
2018-09-10T14:31:21.562Z,23.60
2018-09-10T14:33:49.834Z,23.60
2018-09-10T14:36:18.107Z,23.50
2018-09-10T14:38:46.362Z,23.50
2018-09-10T14:41:14.794Z,23.50
2018-09-10T14:43:43.158Z,23.50
2018-09-10T14:46:11.395Z,23.50
2018-09-10T14:48:40.735Z,23.50
2018-09-10T14:51:09.039Z,23.50
2018-09-10T14:53:37.278Z,23.50
2018-09-10T14:56:05.871Z,23.50
2018-09-10T14:58:34.237Z,23.50
2018-09-10T15:01:02.444Z,23.50
2018-09-10T15:03:31.278Z,23.50
2018-09-10T15:06:05.803Z,23.50
2018-09-10T15:08:35.851Z,23.50
2018-09-10T15:11:04.111Z,23.50
2018-09-10T15:13:32.347Z,23.50
2018-09-10T15:16:00.689Z,23.50
2018-09-10T15:18:29.104Z,23.50
2018-09-10T15:20:57.853Z,23.50
2018-09-10T15:23:26.130Z,23.50
2018-09-10T15:25:54.478Z,23.50
2018-09-10T15:28:24.222Z,23.50
2018-09-10T15:30:52.449Z,23.50
2018-09-10T15:33:20.691Z,23.50
2018-09-10T15:35:49.783Z,23.50
2018-09-10T15:38:18.012Z,23.50
2018-09-10T15:40:46.344Z,23.50
2018-09-10T15:43:14.554Z,23.50
2018-09-10T15:45:42.939Z,23.50
2018-09-10T15:48:11.162Z,23.50
2018-09-10T15:50:41.070Z,23.40
2018-09-10T15:53:09.386Z,23.40
2018-09-10T15:55:37.678Z,23.50
2018-09-10T15:58:06.928Z,23.50
2018-09-10T16:00:35.151Z,23.50
2018-09-10T16:03:03.384Z,23.50
2018-09-10T16:05:32.162Z,23.50
2018-09-10T16:08:01.991Z,23.50
2018-09-10T16:10:30.247Z,23.50
2018-09-10T16:12:58.575Z,23.50
2018-09-10T16:15:26.867Z,23.50
2018-09-10T16:17:55.155Z,23.50
2018-09-10T16:20:23.386Z,23.50
2018-09-10T16:22:51.700Z,23.40
2018-09-10T16:25:19.977Z,23.40
2018-09-10T16:27:48.219Z,23.50
2018-09-10T16:30:16.554Z,23.40
2018-09-10T16:32:46.391Z,23.40
2018-09-10T16:35:14.715Z,23.40
2018-09-10T16:37:42.938Z,23.40
2018-09-10T16:40:12.144Z,23.50
2018-09-10T16:42:40.379Z,23.50
2018-09-10T16:45:08.642Z,23.40
2018-09-10T16:47:37.346Z,23.40
2018-09-10T16:50:05.662Z,23.40
2018-09-10T16:52:33.913Z,23.40
2018-09-10T16:55:02.339Z,23.40
2018-09-10T16:57:30.574Z,23.40
2018-09-10T16:59:58.828Z,23.40
2018-09-10T17:02:28.339Z,23.40
2018-09-10T17:04:58.522Z,23.40
2018-09-10T17:07:26.907Z,23.40
2018-09-10T17:09:56.177Z,23.40
2018-09-10T17:12:24.593Z,23.40
2018-09-10T17:14:52.923Z,23.40
2018-09-10T17:17:21.417Z,23.40
2018-09-10T17:19:49.801Z,23.40
2018-09-10T17:22:18.128Z,23.40
2018-09-10T17:24:47.466Z,23.40
2018-09-10T17:27:16.452Z,23.40
2018-09-10T17:29:44.711Z,23.40
2018-09-10T17:32:13.535Z,23.40
2018-09-10T17:34:41.778Z,23.40
2018-09-10T17:37:10.032Z,23.40
2018-09-10T17:39:38.570Z,23.40
2018-09-10T17:42:06.905Z,23.40
2018-09-10T17:44:35.210Z,23.40
2018-09-10T17:47:04.078Z,23.40
2018-09-10T17:49:32.179Z,23.40
2018-09-10T17:52:00.570Z,23.40
2018-09-10T17:54:29.162Z,23.40
2018-09-10T17:56:57.404Z,23.40
2018-09-10T17:59:25.755Z,23.40
2018-09-10T18:01:54.899Z,23.40
2018-09-10T18:04:23.339Z,23.40
2018-09-10T18:06:51.831Z,23.40
2018-09-10T18:09:20.130Z,23.40
2018-09-10T18:11:49.380Z,23.40
2018-09-10T18:14:17.717Z,23.40
2018-09-10T18:16:46.307Z,23.40
2018-09-10T18:19:14.540Z,23.40
2018-09-10T18:21:42.783Z,23.40
2018-09-10T18:24:13.088Z,23.40
2018-09-10T18:26:41.431Z,23.40
2018-09-10T18:29:09.875Z,23.50
2018-09-10T18:31:38.195Z,23.40
2018-09-10T18:34:06.556Z,23.40
2018-09-10T18:36:34.910Z,23.40
2018-09-10T18:39:03.587Z,23.40
2018-09-10T18:41:31.871Z,23.40
2018-09-10T18:44:00.131Z,23.40
2018-09-10T18:46:28.901Z,23.40
2018-09-10T18:48:57.292Z,23.40
2018-09-10T18:51:26.948Z,23.40
2018-09-10T18:53:55.256Z,23.40
2018-09-10T18:56:24.029Z,23.50
2018-09-10T18:58:52.448Z,23.40
2018-09-10T19:01:20.884Z,23.40
2018-09-10T19:03:48.968Z,23.40
2018-09-10T19:06:18.291Z,23.40
2018-09-10T19:08:46.663Z,23.40
2018-09-10T19:11:15.091Z,23.40
2018-09-10T19:13:45.387Z,23.50
2018-09-10T19:16:13.637Z,23.40
2018-09-10T19:18:42.079Z,23.40
2018-09-10T19:21:10.828Z,23.40
2018-09-10T19:23:39.426Z,23.40
2018-09-10T19:26:08.019Z,23.40
2018-09-10T19:28:36.884Z,23.40
2018-09-10T19:31:05.234Z,23.40
2018-09-10T19:33:33.641Z,23.40
2018-09-10T19:36:05.292Z,23.40
2018-09-10T19:38:33.548Z,23.40
2018-09-10T19:41:02.186Z,23.40
2018-09-10T19:43:31.877Z,23.40
2018-09-10T19:46:00.215Z,23.40
2018-09-10T19:48:28.632Z,23.40
2018-09-10T19:50:57.439Z,23.40
2018-09-10T19:53:25.686Z,23.40
2018-09-10T19:55:53.956Z,23.40
2018-09-10T19:58:22.651Z,23.40
2018-09-10T20:00:50.913Z,23.40
2018-09-10T20:03:26.592Z,23.40
2018-09-10T20:05:54.840Z,23.40
2018-09-10T20:08:23.199Z,23.40
2018-09-10T20:10:51.810Z,23.40
2018-09-10T20:13:20.067Z,23.40
2018-09-10T20:15:48.638Z,23.50
2018-09-10T20:18:17.230Z,23.40
2018-09-10T20:20:45.559Z,23.40
2018-09-10T20:23:13.811Z,23.40
2018-09-10T20:25:43.213Z,23.40
2018-09-10T20:28:11.494Z,23.40
2018-09-10T20:30:39.845Z,23.40
2018-09-10T20:33:08.150Z,23.40
2018-09-10T20:35:36.407Z,23.50
2018-09-10T20:38:04.752Z,23.50
2018-09-10T20:40:32.983Z,23.40
2018-09-10T20:43:01.233Z,23.40
2018-09-10T20:45:29.603Z,23.40
2018-09-10T20:47:57.845Z,23.40
2018-09-10T20:50:26.168Z,23.40
2018-09-10T20:52:55.031Z,23.40
2018-09-10T20:55:23.339Z,23.40
2018-09-10T20:57:51.565Z,23.40
2018-09-10T21:00:21.100Z,23.40
2018-09-10T21:02:49.625Z,23.40
2018-09-10T21:05:17.948Z,23.40
2018-09-10T21:07:46.584Z,23.40
2018-09-10T21:10:14.830Z,23.40
2018-09-10T21:12:43.143Z,23.40
2018-09-10T21:15:12.156Z,23.40
2018-09-10T21:17:41.374Z,23.40
2018-09-10T21:20:09.703Z,23.40
2018-09-10T21:22:38.466Z,23.40
2018-09-10T21:25:06.716Z,23.40
2018-09-10T21:27:34.943Z,23.40
2018-09-10T21:30:03.649Z,23.40
2018-09-10T21:32:31.982Z,23.40
2018-09-10T21:35:00.205Z,23.40
2018-09-10T21:37:28.771Z,23.40
2018-09-10T21:39:57.019Z,23.40
2018-09-10T21:42:25.262Z,23.40
2018-09-10T21:44:54.314Z,23.40
2018-09-10T21:47:22.560Z,23.40
2018-09-10T21:49:50.812Z,23.40
2018-09-10T21:52:21.810Z,23.40
2018-09-10T21:54:50.186Z,23.40
2018-09-10T21:57:18.437Z,23.30
2018-09-10T21:59:46.719Z,23.30
2018-09-10T22:02:14.952Z,23.30
2018-09-10T22:04:43.270Z,23.30
2018-09-10T22:07:12.496Z,23.30
2018-09-10T22:09:40.734Z,23.30
2018-09-10T22:12:09.093Z,23.30
2018-09-10T22:14:37.633Z,23.30
2018-09-10T22:17:05.890Z,23.30
2018-09-10T22:19:34.821Z,23.30
2018-09-10T22:22:04.918Z,23.30
2018-09-10T22:24:33.178Z,23.30
2018-09-10T22:27:01.350Z,23.30
2018-09-10T22:29:30.258Z,23.30
2018-09-10T22:31:58.496Z,23.30
2018-09-10T22:34:26.706Z,23.30
2018-09-10T22:36:55.406Z,23.30
2018-09-10T22:39:23.626Z,23.30
2018-09-10T22:41:51.864Z,23.30
2018-09-10T22:44:20.368Z,23.30
2018-09-10T22:46:48.667Z,23.30
2018-09-10T22:49:17.062Z,23.30
2018-09-10T22:51:46.182Z,23.30
2018-09-10T22:54:14.421Z,23.30
2018-09-10T22:56:42.642Z,23.30
2018-09-10T22:59:11.331Z,23.30
2018-09-10T23:01:39.555Z,23.30
2018-09-10T23:04:09.041Z,23.30
2018-09-10T23:06:37.285Z,23.30
2018-09-10T23:09:07.043Z,23.30
2018-09-10T23:11:36.053Z,23.30
2018-09-10T23:14:04.268Z,23.30
2018-09-10T23:16:32.626Z,23.30
2018-09-10T23:19:01.439Z,23.30
2018-09-10T23:21:29.678Z,23.30
2018-09-10T23:23:57.901Z,23.20
2018-09-10T23:26:27.282Z,23.20
2018-09-10T23:28:55.525Z,23.30
2018-09-10T23:31:23.749Z,23.30
2018-09-10T23:33:52.526Z,23.20
2018-09-10T23:36:20.813Z,23.20
2018-09-10T23:38:49.054Z,23.20
2018-09-10T23:41:17.761Z,23.30
2018-09-10T23:43:46.088Z,23.20
2018-09-10T23:46:14.314Z,23.20
2018-09-10T23:48:43.106Z,23.20
2018-09-10T23:51:11.337Z,23.20
2018-09-10T23:53:39.640Z,23.20
2018-09-10T23:56:08.245Z,23.20
2018-09-10T23:58:36.595Z,23.30
